Time;durP1;ratioP1;P1;durP2;ratioP2;P2;SDS_P1;SDS_P2;PMS_P1;PMS_P2;Temp;Humidity;BMP_temperature;BMP_pressure;BME280_temperature;BME280_humidity;BME280_pressure;Samples;Min_cycle;Max_cycle;Signal;HPM_P1;HPM_P2
2023/05/22 00:01:25;;;;;;;10.40;8.30;;;16.90;99.90;;;;;;5101369;28;20178;-86
2023/05/22 00:03:54;;;;;;;8.37;7.50;;;16.00;99.90;;;;;;5085374;28;20252;-90
2023/05/22 00:06:44;;;;;;;10.57;8.60;;;15.90;99.90;;;;;;5087165;28;20179;-90
2023/05/22 00:26:05;;;;;;;9.57;8.57;;;16.00;99.90;;;;;;5117086;22;20249;-86
2023/05/22 00:29:19;;;;;;;9.17;8.23;;;15.80;99.90;;;;;;5084338;28;20475;-90
2023/05/22 00:31:52;;;;;;;9.33;7.57;;;15.70;99.90;;;;;;5099671;28;20187;-90
2023/05/22 00:34:22;;;;;;;9.40;8.50;;;15.70;99.90;;;;;;5119662;22;20246;-86
2023/05/22 00:37:02;;;;;;;9.40;8.40;;;15.70;99.90;;;;;;5083205;28;20188;-86
2023/05/22 00:39:53;;;;;;;8.87;7.93;;;15.80;99.90;;;;;;5101154;28;20165;-85
2023/05/22 00:42:36;;;;;;;8.80;7.87;;;15.80;99.90;;;;;;5204336;22;20222;-85
2023/05/22 00:45:06;;;;;;;8.60;7.80;;;15.70;99.90;;;;;;5113701;22;20241;-88
2023/05/22 00:47:32;;;;;;;8.13;7.43;;;;;;;;;;5078279;28;20171;-90
2023/05/22 00:49:59;;;;;;;9.00;7.93;;;15.70;99.90;;;;;;5078756;28;20187;-91
2023/05/22 00:52:50;;;;;;;8.97;7.90;;;15.70;99.90;;;;;;5063001;28;20190;-85
2023/05/22 00:55:58;;;;;;;9.03;8.17;;;16.10;99.90;;;;;;5319434;22;20239;-87
2023/05/22 00:58:25;;;;;;;9.07;8.17;;;16.10;99.90;;;;;;5061813;28;20196;-85
2023/05/22 01:00:54;;;;;;;8.90;8.00;;;15.70;99.90;;;;;;5061605;28;20180;-84
2023/05/22 01:03:25;;;;;;;8.70;7.83;;;15.30;99.90;;;;;;5060224;28;20200;-88
2023/05/22 01:16:45;;;;;;;8.57;7.70;;;15.60;99.90;;;;;;5058143;23;20204;-86
2023/05/22 01:19:36;;;;;;;8.83;7.90;;;16.50;99.90;;;;;;5071220;28;20204;-85
2023/05/22 01:22:44;;;;;;;8.70;7.80;;;15.80;99.90;;;;;;5082801;22;20222;-87
2023/05/22 01:25:20;;;;;;;8.87;8.07;;;15.70;99.90;;;;;;5096225;28;20237;-88
2023/05/22 01:28:11;;;;;;;10.40;7.70;;;15.90;99.90;;;;;;5107891;22;20231;-87
2023/05/22 01:30:47;;;;;;;9.23;8.30;;;16.50;99.90;;;;;;5103347;22;20601;-87
2023/05/22 01:35:54;;;;;;;9.30;8.37;;;15.80;99.90;;;;;;5128580;22;20290;-85
2023/05/22 01:38:21;;;;;;;9.97;8.97;;;15.60;99.90;;;;;;5253238;22;20247;-85
2023/05/22 01:40:50;;;;;;;9.77;8.80;;;15.80;99.90;;;;;;5097953;28;20219;-87
2023/05/22 01:43:25;;;;;;;11.10;8.73;;;15.60;99.90;;;;;;5097803;28;20178;-86
2023/05/22 02:02:07;;;;;;;9.10;8.20;;;15.50;99.90;;;;;;5085712;22;20243;-86
2023/05/22 02:04:53;;;;;;;9.93;8.93;;;15.80;99.90;;;;;;5062091;28;20198;-83
2023/05/22 02:07:28;;;;;;;10.13;8.80;;;15.30;99.90;;;;;;5109213;22;20233;-83
2023/05/22 02:09:55;;;;;;;11.03;8.73;;;15.30;99.90;;;;;;5121877;28;20173;-84
2023/05/22 02:12:22;;;;;;;9.90;8.17;;;15.30;99.90;;;;;;5138046;28;20178;-85
2023/05/22 02:14:49;;;;;;;9.27;8.30;;;16.10;99.90;;;;;;5137241;28;20186;-87
2023/05/22 02:36:39;;;;;;;9.37;8.50;;;15.30;99.90;;;;;;5071729;28;20227;-85
2023/05/22 02:39:29;;;;;;;12.17;8.27;;;15.20;99.90;;;;;;5100783;22;20242;-85
2023/05/22 02:41:55;;;;;;;9.20;7.80;;;15.20;99.90;;;;;;5075174;28;20182;-86
2023/05/22 02:44:26;;;;;;;9.93;8.93;;;15.20;99.90;;;;;;5072845;28;20226;-84
2023/05/22 02:46:51;;;;;;;8.93;8.10;;;15.20;99.90;;;;;;5077189;28;20192;-86
2023/05/22 02:49:17;;;;;;;9.77;8.77;;;15.10;99.90;;;;;;5095428;28;20191;-84
2023/05/22 02:51:46;;;;;;;10.57;8.47;;;15.10;99.90;;;;;;5097040;28;20182;-84
2023/05/22 02:54:17;;;;;;;9.37;8.47;;;15.10;99.90;;;;;;5177966;22;20225;-84
2023/05/22 02:56:56;;;;;;;10.07;8.17;;;15.20;99.90;;;;;;5187737;22;20227;-84
2023/05/22 02:59:22;;;;;;;10.47;8.73;;;;;;;;;;5096078;28;20156;-85
2023/05/22 03:01:48;;;;;;;10.17;9.17;;;15.20;99.90;;;;;;5097816;28;20212;-85
2023/05/22 03:04:16;;;;;;;10.77;8.27;;;15.20;99.90;;;;;;5095768;28;20283;-87
2023/05/22 03:06:45;;;;;;;9.77;8.77;;;15.60;99.90;;;;;;5096171;28;20202;-84
2023/05/22 03:11:47;;;;;;;9.93;8.53;;;;;;;;;;5098746;22;20239;-90
2023/05/22 03:14:13;;;;;;;9.83;8.10;;;15.10;99.90;;;;;;5085731;28;20183;-90
2023/05/22 03:16:40;;;;;;;9.10;8.20;;;15.10;99.90;;;;;;5059968;28;20258;-87
2023/05/22 03:19:17;;;;;;;9.97;8.93;;;15.00;99.90;;;;;;5078305;22;20231;-85
2023/05/22 03:21:47;;;;;;;9.60;8.67;;;15.40;99.90;;;;;;5079341;28;20159;-85
2023/05/22 03:24:29;;;;;;;9.93;8.67;;;15.10;99.90;;;;;;5102693;22;20253;-86
2023/05/22 03:26:55;;;;;;;11.53;8.83;;;15.20;99.90;;;;;;5076138;28;20211;-82
2023/05/22 03:29:22;;;;;;;9.60;8.60;;;15.10;99.90;;;;;;5061281;28;20168;-83
2023/05/22 03:31:49;;;;;;;11.00;8.30;;;15.10;99.90;;;;;;5077307;28;20185;-84
2023/05/22 03:34:21;;;;;;;9.50;8.27;;;15.10;99.90;;;;;;5057125;23;20236;-85
2023/05/22 03:36:47;;;;;;;10.27;8.60;;;15.00;99.90;;;;;;5069958;28;20189;-85
2023/05/22 03:39:14;;;;;;;9.80;8.47;;;15.10;99.90;;;;;;5056275;28;20671;-85
2023/05/22 03:41:49;;;;;;;9.87;8.47;;;15.10;99.90;;;;;;5050335;28;20169;-85
2023/05/22 03:44:28;;;;;;;9.43;8.53;;;15.70;99.90;;;;;;5047492;28;20215;-85
2023/05/22 03:46:59;;;;;;;9.80;8.47;;;14.70;99.90;;;;;;5065087;28;20216;-86
2023/05/22 03:49:37;;;;;;;9.07;8.17;;;15.00;99.90;;;;;;5053462;28;20172;-85
2023/05/22 03:52:06;;;;;;;9.43;8.53;;;15.60;99.90;;;;;;5054269;28;20168;-87
2023/05/22 03:54:37;;;;;;;10.17;8.27;;;14.70;99.90;;;;;;5053741;28;20181;-86
2023/05/22 03:59:54;;;;;;;11.83;8.47;;;14.80;99.90;;;;;;5104935;22;20239;-85
2023/05/22 04:02:43;;;;;;;11.50;8.70;;;15.10;99.90;;;;;;5073621;28;20220;-88
2023/05/22 04:05:11;;;;;;;8.90;8.00;;;16.10;99.90;;;;;;5077663;28;20206;-90
2023/05/22 04:08:05;;;;;;;9.90;8.53;;;15.10;99.90;;;;;;5079760;28;20151;-84
2023/05/22 04:10:31;;;;;;;10.20;8.63;;;;;;;;;;5096091;28;20140;-90
2023/05/22 04:13:10;;;;;;;10.13;9.03;;;15.20;99.90;;;;;;5095817;28;20231;-90
2023/05/22 04:15:40;;;;;;;9.53;8.47;;;14.90;99.90;;;;;;5102807;22;20219;-86
2023/05/22 04:18:07;;;;;;;9.97;8.30;;;;;;;;;;5098971;28;20179;-85
2023/05/22 04:20:36;;;;;;;9.80;8.77;;;15.10;99.90;;;;;;5115043;22;20309;-86
2023/05/22 04:23:06;;;;;;;10.17;9.10;;;;;;;;;;5097712;28;20164;-86
2023/05/22 04:25:38;;;;;;;9.67;8.67;;;15.20;99.90;;;;;;5079178;28;20183;-91
2023/05/22 04:28:11;;;;;;;9.40;8.20;;;15.20;99.90;;;;;;5091491;28;20187;-84
2023/05/22 04:30:38;;;;;;;8.87;7.97;;;15.40;99.90;;;;;;5057434;28;20184;-87
2023/05/22 04:33:05;;;;;;;9.80;8.80;;;;;;;;;;5098148;28;20179;-83
2023/05/22 04:35:33;;;;;;;9.73;7.93;;;15.40;99.90;;;;;;5097222;28;20185;-90
2023/05/22 04:38:02;;;;;;;9.07;8.17;;;15.50;99.90;;;;;;5089086;28;20209;-90
2023/05/22 04:40:33;;;;;;;10.50;8.73;;;15.50;99.90;;;;;;5075075;28;20256;-90
2023/05/22 04:43:02;;;;;;;9.27;8.30;;;15.40;99.90;;;;;;5105868;22;20237;-86
2023/05/22 04:45:29;;;;;;;9.20;8.23;;;;;;;;;;5081713;28;20194;-84
2023/05/22 04:48:01;;;;;;;8.83;7.83;;;15.50;99.90;;;;;;5081977;28;20167;-84
2023/05/22 04:50:31;;;;;;;11.00;8.63;;;15.50;99.90;;;;;;5063645;28;20206;-85
2023/05/22 04:53:04;;;;;;;9.37;8.13;;;15.60;99.90;;;;;;5065536;28;20171;-82
2023/05/22 04:55:46;;;;;;;9.00;8.10;;;16.20;99.90;;;;;;5099692;28;20167;-83
2023/05/22 04:58:18;;;;;;;8.90;7.53;;;;;;;;;;5049792;28;20198;-86
2023/05/22 05:01:05;;;;;;;9.53;7.53;;;16.60;99.90;;;;;;5099363;28;20263;-85
2023/05/22 05:03:36;;;;;;;9.33;8.20;;;15.40;99.90;;;;;;5099120;28;20266;-92
2023/05/22 05:06:25;;;;;;;8.40;7.50;;;16.00;99.90;;;;;;5094001;28;20239;-91
2023/05/22 05:08:53;;;;;;;8.63;7.80;;;16.20;99.90;;;;;;5094148;28;20484;-90
2023/05/22 05:11:22;;;;;;;8.00;7.30;;;16.80;99.90;;;;;;5077553;28;20183;-87
2023/05/22 05:13:49;;;;;;;8.90;7.70;;;16.50;99.90;;;;;;5099320;28;20178;-88
2023/05/22 05:16:15;;;;;;;9.23;7.90;;;16.20;99.90;;;;;;5065423;28;20198;-91
2023/05/22 05:18:42;;;;;;;8.33;7.53;;;16.40;99.90;;;;;;5075151;28;20195;-85
2023/05/22 05:21:08;;;;;;;8.03;7.23;;;;;;;;;;5070170;28;20270;-89
2023/05/22 05:23:35;;;;;;;8.70;7.80;;;16.60;99.90;;;;;;5070126;28;20206;-92
2023/05/22 05:26:06;;;;;;;9.57;7.30;;;16.60;99.90;;;;;;5071499;28;20186;-86
2023/05/22 05:28:32;;;;;;;9.97;7.80;;;16.60;99.90;;;;;;5092236;28;20215;-86
2023/05/22 05:31:00;;;;;;;10.50;9.40;;;16.60;99.90;;;;;;5090002;28;20173;-90
2023/05/22 05:33:39;;;;;;;12.57;8.43;;;16.60;99.90;;;;;;5087633;28;20589;-85
2023/05/22 05:36:05;;;;;;;8.83;8.03;;;16.80;99.90;;;;;;5083483;28;20662;-87
2023/05/22 05:38:32;;;;;;;8.67;7.63;;;16.20;99.90;;;;;;5071127;28;20175;-91
2023/05/22 05:40:58;;;;;;;8.80;8.00;;;16.80;99.90;;;;;;5090587;28;20193;-91
2023/05/22 05:43:24;;;;;;;9.77;7.90;;;;;;;;;;5084317;28;20220;-83
2023/05/22 05:45:52;;;;;;;9.50;8.57;;;16.90;99.90;;;;;;5082839;28;20201;-85
2023/05/22 05:48:18;;;;;;;8.37;7.50;;;17.20;99.90;;;;;;5074254;28;20182;-92
2023/05/22 05:50:44;;;;;;;8.63;7.73;;;17.00;99.90;;;;;;5087899;28;20171;-88
2023/05/22 05:53:11;;;;;;;9.60;7.90;;;17.10;99.90;;;;;;5040102;28;20213;-92
2023/05/22 05:55:38;;;;;;;8.33;7.40;;;17.10;99.90;;;;;;5093256;28;20183;-87
2023/05/22 05:58:04;;;;;;;9.07;8.17;;;17.40;99.90;;;;;;5075203;28;20194;-89
2023/05/22 06:00:32;;;;;;;8.47;7.67;;;17.30;99.90;;;;;;5132816;22;20242;-84
2023/05/22 06:02:58;;;;;;;8.03;7.20;;;17.90;99.90;;;;;;5046773;28;20187;-89
2023/05/22 06:05:25;;;;;;;9.20;8.30;;;17.40;99.90;;;;;;5067409;28;20194;-88
2023/05/22 06:07:51;;;;;;;8.17;7.37;;;17.50;99.90;;;;;;5074610;28;20173;-86
2023/05/22 06:10:17;;;;;;;10.27;8.13;;;17.60;99.90;;;;;;5075607;28;20175;-90
2023/05/22 06:12:48;;;;;;;8.50;7.23;;;17.70;99.90;;;;;;5067718;28;20178;-92
2023/05/22 06:15:14;;;;;;;7.60;6.90;;;17.80;99.90;;;;;;5094345;28;20186;-92
2023/05/22 06:17:40;;;;;;;8.10;7.37;;;18.00;99.90;;;;;;5094647;28;20175;-85
2023/05/22 06:20:23;;;;;;;9.60;8.13;;;18.20;99.90;;;;;;5098826;28;20166;-88
2023/05/22 06:22:52;;;;;;;8.93;7.00;;;18.20;99.90;;;;;;5081655;28;20170;-84
2023/05/22 06:25:29;;;;;;;7.73;7.03;;;18.30;99.90;;;;;;5098868;28;20202;-85
2023/05/22 06:28:07;;;;;;;10.57;7.70;;;18.10;99.90;;;;;;5102461;22;20241;-85
2023/05/22 06:30:37;;;;;;;7.37;6.70;;;18.80;99.90;;;;;;5085509;28;20159;-84
2023/05/22 06:33:05;;;;;;;8.30;6.97;;;18.80;99.90;;;;;;5079281;28;20171;-88
2023/05/22 06:35:32;;;;;;;7.43;6.73;;;18.90;99.90;;;;;;5070372;28;20200;-86
2023/05/22 06:37:58;;;;;;;9.03;7.20;;;19.10;99.90;;;;;;5096314;28;20190;-87
2023/05/22 06:40:24;;;;;;;10.97;7.33;;;19.00;99.90;;;;;;5075276;28;20163;-85
2023/05/22 06:43:11;;;;;;;8.70;7.47;;;19.20;99.90;;;;;;5100737;22;20222;-87
2023/05/22 06:45:45;;;;;;;9.30;7.07;;;19.40;99.90;;;;;;5095179;28;20287;-89
2023/05/22 06:48:24;;;;;;;9.90;7.30;;;19.60;99.90;;;;;;5098060;28;20165;-86
2023/05/22 06:50:52;;;;;;;7.73;6.97;;;19.70;99.90;;;;;;5096215;28;20175;-88
2023/05/22 06:53:24;;;;;;;9.17;7.10;;;19.80;99.90;;;;;;5094366;28;20172;-88
2023/05/22 06:56:25;;;;;;;9.43;6.93;;;19.80;99.90;;;;;;5093870;28;20243;-87
2023/05/22 06:58:59;;;;;;;7.50;6.80;;;18.80;99.90;;;;;;5071800;28;20183;-89
2023/05/22 07:01:28;;;;;;;7.00;6.40;;;19.90;99.90;;;;;;5093915;22;20614;-90
2023/05/22 07:03:55;;;;;;;10.93;8.00;;;20.00;99.90;;;;;;5066345;28;20286;-91
2023/05/22 07:06:21;;;;;;;7.83;7.03;;;20.10;99.90;;;;;;5083036;28;20179;-91
2023/05/22 07:08:47;;;;;;;10.33;6.73;;;20.30;99.90;;;;;;5067445;28;20201;-93
2023/05/22 07:11:13;;;;;;;7.17;6.23;;;20.40;99.90;;;;;;5067399;28;20223;-90
2023/05/22 07:13:39;;;;;;;8.77;6.67;;;20.50;99.90;;;;;;5065891;28;20175;-91
2023/05/22 07:16:06;;;;;;;7.80;7.00;;;20.60;99.90;;;;;;5068398;28;20941;-88
2023/05/22 07:18:38;;;;;;;7.37;6.77;;;20.50;99.90;;;;;;5091634;28;20181;-88
2023/05/22 07:21:06;;;;;;;6.97;6.27;;;20.60;99.90;;;;;;5064432;28;20175;-91
2023/05/22 07:23:32;;;;;;;7.17;6.47;;;20.60;99.90;;;;;;5081262;28;20249;-90
2023/05/22 07:26:00;;;;;;;9.27;6.53;;;20.80;99.90;;;;;;5080854;28;20179;-92
2023/05/22 07:28:25;;;;;;;6.73;5.90;;;20.90;99.90;;;;;;5069484;28;20179;-89
2023/05/22 07:30:51;;;;;;;6.60;5.77;;;21.00;99.90;;;;;;5162489;22;20767;-93
2023/05/22 07:33:17;;;;;;;6.33;5.73;;;21.10;99.90;;;;;;5083090;28;20674;-93
2023/05/22 07:35:44;;;;;;;6.63;6.03;;;21.20;99.90;;;;;;5082134;28;20229;-92
2023/05/22 07:38:10;;;;;;;6.60;6.00;;;21.20;99.90;;;;;;5079602;28;20167;-95
2023/05/22 07:40:39;;;;;;;6.77;6.10;;;21.50;99.90;;;;;;5081667;28;20206;-93
2023/05/22 16:53:26;;;;;;;4.82;4.43;;;24.40;90.30;;;;;;5141001;22;20314;-90
2023/05/22 16:55:52;;;;;;;5.80;5.30;;;24.20;90.60;;;;;;5072704;28;20221;-90
2023/05/22 16:58:18;;;;;;;4.75;4.35;;;24.10;90.80;;;;;;5072811;28;20179;-88
2023/05/22 17:00:47;;;;;;;4.63;4.18;;;24.10;90.70;;;;;;5074397;28;20172;-87
2023/05/22 17:34:06;;;;;;;4.32;4.03;;;23.40;92.30;;;;;;5079079;22;20292;-87
2023/05/22 17:36:34;;;;;;;4.38;4.07;;;23.10;92.30;;;;;;5056689;28;20184;-88
2023/05/22 17:44:32;;;;;;;4.97;4.20;;;23.00;92.70;;;;;;5119500;28;20210;-86
2023/05/22 17:47:43;;;;;;;4.72;4.32;;;23.60;93.40;;;;;;5120217;28;20162;-87
2023/05/22 17:50:20;;;;;;;4.57;4.28;;;23.00;93.30;;;;;;5189741;22;20205;-87
2023/05/22 17:53:08;;;;;;;4.30;4.00;;;23.10;93.60;;;;;;5077519;22;20254;-87
2023/05/22 17:55:56;;;;;;;5.20;4.70;;;22.80;93.60;;;;;;5149540;22;20223;-88
2023/05/22 17:58:33;;;;;;;4.43;3.97;;;22.80;93.70;;;;;;5099691;28;20195;-88
2023/05/22 18:03:35;;;;;;;5.00;4.50;;;22.90;93.80;;;;;;5133626;22;20235;-87
2023/05/22 18:06:01;;;;;;;4.80;4.45;;;22.70;94.10;;;;;;5269589;22;20278;-84
2023/05/22 18:08:46;;;;;;;5.18;4.78;;;22.80;93.70;;;;;;5094221;28;20260;-85
2023/05/22 18:11:34;;;;;;;4.77;4.37;;;23.00;93.90;;;;;;5100513;22;20242;-85
2023/05/22 18:16:33;;;;;;;5.27;4.20;;;22.70;93.90;;;;;;5107153;22;20322;-84
2023/05/22 18:19:03;;;;;;;4.82;4.18;;;22.90;94.10;;;;;;5099893;22;20253;-84
2023/05/22 18:21:38;;;;;;;4.35;4.05;;;22.80;94.30;;;;;;5089237;28;20190;-84
2023/05/22 18:24:13;;;;;;;4.63;4.28;;;23.20;94.60;;;;;;5089249;28;20219;-84
2023/05/22 18:26:39;;;;;;;4.57;4.30;;;22.70;94.30;;;;;;5072963;28;20194;-84
2023/05/22 18:29:18;;;;;;;5.80;4.82;;;22.60;94.80;;;;;;5070761;28;20246;-84
2023/05/22 18:31:57;;;;;;;4.83;4.53;;;22.50;94.70;;;;;;5095845;22;20597;-85
2023/05/22 18:34:32;;;;;;;5.30;4.70;;;22.40;94.90;;;;;;5074431;28;20199;-84
2023/05/22 18:36:59;;;;;;;5.73;5.07;;;22.20;95.30;;;;;;5178225;22;20227;-88
2023/05/22 18:39:27;;;;;;;5.50;5.00;;;22.10;95.40;;;;;;5088038;28;20194;-88
2023/05/22 18:41:54;;;;;;;4.97;4.50;;;22.00;95.80;;;;;;5091382;28;20361;-88
2023/05/22 18:44:23;;;;;;;4.77;4.37;;;21.80;96.30;;;;;;5091030;28;20207;-87
2023/05/22 18:46:53;;;;;;;4.63;4.33;;;21.60;96.40;;;;;;5088977;28;20221;-88
2023/05/22 18:49:21;;;;;;;8.10;5.07;;;21.50;96.90;;;;;;5088949;28;20183;-89
2023/05/22 18:51:53;;;;;;;5.50;5.00;;;21.80;97.10;;;;;;5070408;28;20195;-89
2023/05/22 18:54:23;;;;;;;4.77;4.37;;;21.40;97.30;;;;;;5073395;28;20179;-86
2023/05/22 18:56:51;;;;;;;4.90;4.50;;;21.30;97.10;;;;;;5085436;28;20210;-89
2023/05/22 18:59:19;;;;;;;6.67;5.53;;;21.20;97.20;;;;;;5072473;28;20176;-88
2023/05/22 19:01:45;;;;;;;5.27;4.70;;;21.40;97.90;;;;;;5086877;28;20235;-88
2023/05/22 19:04:11;;;;;;;5.67;5.00;;;21.10;97.30;;;;;;5081858;28;20207;-88
2023/05/22 19:06:40;;;;;;;5.17;4.77;;;21.00;97.40;;;;;;5086737;28;20187;-87
2023/05/22 19:09:10;;;;;;;4.90;4.60;;;21.00;97.40;;;;;;5074117;28;20189;-89
2023/05/22 19:11:40;;;;;;;5.20;4.70;;;20.90;97.50;;;;;;5074144;28;20186;-87
2023/05/22 19:14:17;;;;;;;5.17;4.77;;;20.80;97.70;;;;;;5085703;28;20228;-88
2023/05/22 19:16:46;;;;;;;4.73;4.40;;;20.80;97.70;;;;;;5085403;28;20202;-86
2023/05/22 19:19:26;;;;;;;4.53;4.23;;;20.70;97.80;;;;;;5086280;28;20174;-87
2023/05/22 19:21:53;;;;;;;5.30;4.80;;;20.50;98.00;;;;;;5085251;28;20179;-86
2023/05/22 19:24:20;;;;;;;4.90;4.40;;;20.60;98.00;;;;;;5166693;22;20198;-89
2023/05/22 19:26:47;;;;;;;4.50;4.20;;;21.40;98.70;;;;;;5074298;28;20245;-90
2023/05/22 19:29:14;;;;;;;4.77;4.47;;;20.60;98.20;;;;;;5052467;28;20179;-88
2023/05/22 19:31:40;;;;;;;4.90;4.60;;;20.40;98.50;;;;;;5067825;28;20183;-88
2023/05/22 19:34:06;;;;;;;5.27;4.70;;;20.50;98.50;;;;;;5071170;28;20241;-89
2023/05/22 19:36:35;;;;;;;5.90;5.40;;;20.40;98.50;;;;;;5089711;28;20706;-91
2023/05/22 19:39:05;;;;;;;5.23;4.73;;;20.40;98.90;;;;;;5069804;28;20179;-88
2023/05/22 19:41:35;;;;;;;5.33;4.93;;;17.90;98.10;;;;;;5088077;28;20195;-88
2023/05/22 19:44:01;;;;;;;5.50;5.00;;;20.40;98.90;;;;;;5052358;28;20663;-89
2023/05/22 19:46:31;;;;;;;4.90;4.50;;;20.30;99.00;;;;;;5055632;28;20191;-86
2023/05/22 19:48:57;;;;;;;5.13;4.67;;;20.30;99.90;;;;;;5093813;28;20171;-87
2023/05/22 19:51:26;;;;;;;5.80;5.30;;;20.20;99.50;;;;;;5093053;28;20179;-90
2023/05/22 19:53:55;;;;;;;5.33;4.90;;;20.80;99.90;;;;;;5073842;28;20680;-91
2023/05/22 19:56:22;;;;;;;5.83;5.13;;;20.70;99.90;;;;;;5070391;28;20180;-88
2023/05/22 19:58:59;;;;;;;5.53;5.03;;;20.00;99.50;;;;;;5071169;28;20678;-88
2023/05/22 20:01:25;;;;;;;4.90;4.50;;;20.30;99.90;;;;;;5073191;28;20536;-89
2023/05/22 20:03:55;;;;;;;7.10;5.53;;;20.10;99.70;;;;;;5071148;28;20315;-88
2023/05/22 20:06:30;;;;;;;5.20;4.80;;;20.10;99.70;;;;;;5050709;28;20223;-87
2023/05/22 20:09:01;;;;;;;6.00;5.03;;;20.60;99.90;;;;;;5050401;28;20202;-88
2023/05/22 20:11:32;;;;;;;5.70;4.90;;;20.20;99.90;;;;;;5065572;28;20200;-87
2023/05/22 20:14:04;;;;;;;5.00;4.60;;;20.00;99.90;;;;;;5049478;28;20191;-88
2023/05/22 20:16:33;;;;;;;5.70;5.10;;;20.00;99.90;;;;;;5069998;28;20243;-89
2023/05/22 20:19:05;;;;;;;6.60;5.57;;;19.40;99.90;;;;;;5052562;28;20252;-88
2023/05/22 20:21:31;;;;;;;5.17;4.77;;;19.70;99.90;;;;;;5051691;28;20180;-87
2023/05/22 20:24:03;;;;;;;6.57;5.60;;;19.70;99.90;;;;;;5058217;28;20207;-87
2023/05/22 20:26:55;;;;;;;5.80;5.20;;;20.80;99.90;;;;;;5094026;28;20234;-90
2023/05/22 20:29:29;;;;;;;5.63;5.17;;;19.50;99.90;;;;;;5095512;28;20157;-89
2023/05/22 20:31:57;;;;;;;6.70;5.23;;;19.40;99.90;;;;;;5060354;28;20215;-87
2023/05/22 20:34:25;;;;;;;5.93;5.47;;;18.80;99.90;;;;;;5078743;28;20196;-87
2023/05/22 20:36:57;;;;;;;5.40;4.90;;;19.30;99.90;;;;;;5094720;28;20187;-86
2023/05/22 20:39:28;;;;;;;6.73;5.57;;;20.00;99.90;;;;;;5092551;28;20160;-90
2023/05/22 20:41:56;;;;;;;6.07;5.57;;;18.80;99.90;;;;;;5073347;28;20255;-89
2023/05/22 20:44:23;;;;;;;5.50;5.00;;;19.50;99.90;;;;;;5087863;28;20215;-90
2023/05/22 20:46:52;;;;;;;5.97;5.47;;;19.10;99.90;;;;;;5086609;28;20206;-87
2023/05/22 20:49:21;;;;;;;6.03;5.43;;;19.10;99.90;;;;;;5089958;28;20176;-89
2023/05/22 20:51:48;;;;;;;6.00;5.50;;;19.00;99.90;;;;;;5067748;28;20299;-89
2023/05/22 20:54:16;;;;;;;6.17;5.50;;;19.00;99.90;;;;;;5069063;28;20187;-92
2023/05/22 20:56:47;;;;;;;5.73;5.23;;;19.10;99.90;;;;;;5090264;28;20179;-88
2023/05/22 20:59:15;;;;;;;9.07;6.00;;;19.10;99.90;;;;;;5058015;28;20222;-88
2023/05/22 21:01:42;;;;;;;6.37;5.53;;;19.10;99.90;;;;;;5092452;28;20179;-88
2023/05/22 21:04:08;;;;;;;5.53;5.13;;;18.80;99.90;;;;;;5074345;28;20205;-89
2023/05/22 21:06:34;;;;;;;5.93;5.40;;;18.80;99.90;;;;;;5075478;28;20187;-88
2023/05/22 21:09:09;;;;;;;6.27;5.30;;;18.70;99.90;;;;;;5074643;28;20197;-87
2023/05/22 21:11:35;;;;;;;5.77;5.27;;;18.50;99.90;;;;;;5077091;28;20190;-88
2023/05/22 21:14:02;;;;;;;6.37;5.60;;;18.50;99.90;;;;;;5077618;28;20233;-88
2023/05/22 21:16:30;;;;;;;6.60;6.00;;;16.00;99.90;;;;;;5093946;28;20191;-89
2023/05/22 21:18:56;;;;;;;8.67;6.10;;;18.40;99.90;;;;;;5072430;28;20240;-88
2023/05/22 21:21:23;;;;;;;6.90;6.20;;;18.30;99.90;;;;;;5091716;28;20179;-87
2023/05/22 21:23:54;;;;;;;5.50;5.07;;;18.10;99.90;;;;;;5072711;28;20205;-89
2023/05/22 21:26:21;;;;;;;6.30;5.70;;;18.10;99.90;;;;;;5067455;28;20238;-88
2023/05/22 21:28:54;;;;;;;6.17;5.57;;;18.00;99.90;;;;;;5051428;28;20194;-89
2023/05/22 21:31:23;;;;;;;5.57;5.07;;;17.60;99.90;;;;;;5110674;23;20250;-87
2023/05/22 21:33:53;;;;;;;6.17;5.40;;;17.90;99.90;;;;;;5133422;28;20646;-91
2023/05/22 21:36:28;;;;;;;6.13;5.50;;;18.30;99.90;;;;;;5136334;28;20195;-93
2023/05/22 21:38:59;;;;;;;6.50;5.90;;;17.90;99.90;;;;;;5112744;28;20169;-91
2023/05/22 21:41:26;;;;;;;6.27;5.73;;;18.20;99.90;;;;;;5111869;28;20177;-90
2023/05/22 21:43:52;;;;;;;6.37;5.70;;;17.80;99.90;;;;;;5129881;28;20180;-88
2023/05/22 21:46:23;;;;;;;6.47;5.63;;;17.70;99.90;;;;;;5114994;28;20182;-89
2023/05/22 21:48:52;;;;;;;6.07;5.57;;;17.70;99.90;;;;;;5113782;28;20172;-88
2023/05/22 21:51:24;;;;;;;8.03;5.60;;;17.80;99.90;;;;;;5094841;28;20208;-88
2023/05/22 21:53:56;;;;;;;6.90;5.97;;;17.80;99.90;;;;;;5130463;28;20162;-88
2023/05/22 21:56:22;;;;;;;6.33;5.37;;;17.50;99.90;;;;;;5098860;28;20180;-87
2023/05/22 21:58:49;;;;;;;6.47;5.90;;;17.50;99.90;;;;;;5116091;28;20556;-87
2023/05/22 22:01:17;;;;;;;6.57;5.80;;;17.40;99.90;;;;;;5118255;28;20238;-89
2023/05/22 22:03:43;;;;;;;6.13;5.63;;;17.80;99.90;;;;;;5132545;28;20184;-88
2023/05/22 22:06:18;;;;;;;6.80;5.87;;;17.30;99.90;;;;;;5115350;28;20208;-89
2023/05/22 22:08:47;;;;;;;6.40;5.80;;;17.30;99.90;;;;;;5111748;28;20181;-88
2023/05/22 22:11:19;;;;;;;7.03;5.83;;;17.40;99.90;;;;;;5111703;28;20177;-90
2023/05/22 22:13:47;;;;;;;6.70;5.37;;;17.30;99.90;;;;;;5109714;28;20173;-88
2023/05/22 22:16:15;;;;;;;6.43;5.93;;;17.30;99.90;;;;;;5128714;28;20178;-89
2023/05/22 22:18:42;;;;;;;6.97;6.20;;;17.30;99.90;;;;;;5110615;28;20177;-89
2023/05/22 22:21:09;;;;;;;5.97;5.47;;;17.40;99.90;;;;;;5107013;28;20181;-90
2023/05/22 22:23:37;;;;;;;6.33;5.73;;;17.10;99.90;;;;;;5089163;28;20182;-88
2023/05/22 22:26:03;;;;;;;6.53;5.80;;;17.70;99.90;;;;;;5112156;28;20663;-89
2023/05/22 22:28:38;;;;;;;6.20;5.53;;;16.90;99.90;;;;;;5111202;28;20168;-88
2023/05/22 22:31:04;;;;;;;7.10;6.27;;;16.80;99.90;;;;;;5111045;28;20300;-87
2023/05/22 22:33:34;;;;;;;6.87;6.00;;;16.80;99.90;;;;;;5117968;28;20705;-90
2023/05/22 22:36:02;;;;;;;6.57;5.73;;;16.90;99.90;;;;;;5118769;28;20167;-89
2023/05/22 22:38:31;;;;;;;6.70;6.03;;;18.20;99.90;;;;;;5115162;28;20183;-91
2023/05/22 22:41:03;;;;;;;6.37;5.80;;;16.80;99.90;;;;;;5109589;28;20174;-90
2023/05/22 22:43:30;;;;;;;7.67;6.27;;;16.80;99.90;;;;;;5116087;28;20194;-89
2023/05/22 22:45:56;;;;;;;6.77;5.60;;;16.70;99.90;;;;;;5100481;28;20514;-91
2023/05/22 22:48:22;;;;;;;7.10;6.07;;;16.60;99.90;;;;;;5109861;28;20171;-93
2023/05/22 22:50:48;;;;;;;5.80;5.37;;;17.00;99.90;;;;;;5117696;28;20182;-90
2023/05/22 22:53:14;;;;;;;7.47;5.70;;;16.50;99.90;;;;;;5116660;28;20185;-96
2023/05/22 22:55:40;;;;;;;6.33;5.73;;;16.50;99.90;;;;;;5106884;28;20257;-94
2023/05/22 22:58:08;;;;;;;6.47;5.87;;;16.50;99.90;;;;;;5109591;28;20168;-94
2023/05/22 23:00:37;;;;;;;6.30;5.80;;;16.50;99.90;;;;;;5091719;28;20242;-91
2023/05/22 23:03:03;;;;;;;7.20;6.37;;;16.50;99.90;;;;;;5085766;28;20185;-93
2023/05/22 23:05:30;;;;;;;5.80;5.27;;;16.50;99.90;;;;;;5104439;28;20206;-94
2023/05/22 23:08:00;;;;;;;6.00;5.47;;;16.50;99.90;;;;;;5086332;28;20174;-93
2023/05/22 23:10:27;;;;;;;6.13;5.50;;;16.50;99.90;;;;;;5103369;28;20197;-90
2023/05/22 23:12:53;;;;;;;6.83;6.13;;;16.50;99.90;;;;;;5103060;28;20178;-93
2023/05/22 23:15:26;;;;;;;5.87;5.30;;;16.50;99.90;;;;;;5110806;28;20165;-93
2023/05/22 23:17:53;;;;;;;8.93;5.90;;;16.50;99.90;;;;;;5087328;28;20638;-96
2023/05/22 23:20:19;;;;;;;6.47;5.90;;;16.40;99.90;;;;;;5085738;28;20178;-96
2023/05/22 23:22:47;;;;;;;6.40;5.90;;;17.00;99.90;;;;;;5116979;28;20371;-90
2023/05/22 23:25:13;;;;;;;5.90;5.40;;;16.30;99.90;;;;;;5088498;28;20198;-86
2023/05/22 23:27:40;;;;;;;6.53;6.03;;;16.30;99.90;;;;;;5105059;28;20210;-86
2023/05/22 23:30:08;;;;;;;7.10;6.03;;;16.20;99.90;;;;;;5112683;28;20190;-93
2023/05/22 23:32:34;;;;;;;5.77;5.27;;;16.30;99.90;;;;;;5090922;28;20222;-95
2023/05/22 23:35:04;;;;;;;7.27;5.23;;;16.30;99.90;;;;;;5088346;28;20183;-96
2023/05/22 23:37:30;;;;;;;7.20;5.93;;;16.30;99.90;;;;;;5097035;28;20170;-93
2023/05/22 23:39:56;;;;;;;6.03;5.40;;;16.30;99.90;;;;;;5093866;28;20199;-93
2023/05/22 23:42:22;;;;;;;6.67;5.77;;;16.30;99.90;;;;;;5086521;28;20175;-94
2023/05/22 23:44:47;;;;;;;6.20;5.60;;;16.30;99.90;;;;;;5085836;28;20258;-95
2023/05/22 23:47:17;;;;;;;6.30;5.73;;;16.20;99.90;;;;;;5088744;28;20662;-90
2023/05/22 23:49:58;;;;;;;6.03;5.53;;;16.20;99.90;;;;;;5114693;28;20175;-89
2023/05/22 23:52:54;;;;;;;6.03;5.50;;;16.20;99.90;;;;;;5097440;28;20165;-89
2023/05/22 23:55:23;;;;;;;5.90;5.33;;;16.10;99.90;;;;;;5099029;28;20236;-91
2023/05/22 23:57:50;;;;;;;9.70;5.60;;;16.30;99.90;;;;;;5117969;28;20171;-87
